Time;durP1;ratioP1;P1;durP2;ratioP2;P2;SDS_P1;SDS_P2;PMS_P1;PMS_P2;Temp;Humidity;BMP_temperature;BMP_pressure;BME280_temperature;BME280_humidity;BME280_pressure;Samples;Min_cycle;Max_cycle;Signal;HPM_P1;HPM_P2
2022/06/03 04:12:07;;;;;;;3.48;1.31;;;15.50;99.90;;;18.90;71.21;98160.38;2315710;27;20158;-71
2022/06/03 04:14:58;;;;;;;2.49;1.40;;;15.50;99.90;;;18.77;71.92;98159.63;2317180;27;20119;-71
2022/06/03 04:16:42;;;;;;;1.75;0.35;;;15.50;99.90;;;18.77;71.82;98162.34;174539;28;20719;-71
2022/06/03 04:17:12;;;;;;;2.17;1.19;;;15.50;99.90;;;18.79;72.08;98162.97;172289;28;1802;-70
2022/06/03 04:17:57;;;;;;;3.53;1.46;;;15.50;99.90;;;19.03;70.96;98162.97;172890;28;1630;-70
2022/06/03 04:19:21;;;;;;;3.99;1.41;;;15.50;99.90;;;19.24;70.22;98163.59;173318;28;1197;-71
2022/06/03 04:19:51;;;;;;;3.31;1.58;;;15.50;99.90;;;19.12;70.80;98160.75;171978;28;1418;-71
2022/06/03 04:20:32;;;;;;;3.50;1.54;;;15.50;99.90;;;18.92;71.66;98171.88;171245;28;1435;-70
2022/06/03 04:21:25;;;;;;;3.53;1.60;;;15.50;99.90;;;18.81;72.25;98160.88;171615;28;2254;-72
2022/06/03 04:22:53;;;;;;;2.91;1.42;;;15.50;99.90;;;18.89;71.90;98168.75;171747;28;1385;-70
2022/06/03 04:23:56;;;;;;;2.85;1.51;;;15.50;99.90;;;19.08;71.21;98173.19;172096;28;1222;-70
2022/06/03 04:24:57;;;;;;;3.97;1.58;;;15.60;99.90;;;19.12;71.06;98168.16;172281;28;1225;-71
2022/06/03 04:25:20;;;;;;;4.57;1.40;;;15.60;99.90;;;19.10;70.63;98166.47;173433;28;1809;-70
2022/06/03 04:26:32;;;;;;;3.11;1.30;;;15.60;99.90;;;19.12;70.79;98171.69;172638;28;1978;-72
2022/06/03 04:27:29;;;;;;;4.86;1.53;;;15.60;99.90;;;19.06;71.59;98175.34;169894;28;1459;-72
2022/06/03 04:28:34;;;;;;;4.11;1.36;;;15.60;99.90;;;18.96;72.04;98175.81;170899;28;2473;-71
2022/06/03 04:29:35;;;;;;;4.26;1.45;;;15.60;99.90;;;18.94;72.40;98179.84;173545;28;1200;-71
2022/06/03 04:30:26;;;;;;;2.96;1.50;;;15.60;99.90;;;18.94;72.43;98172.50;172862;28;1329;-71
2022/06/03 04:31:29;;;;;;;2.79;1.46;;;15.60;99.90;;;19.05;72.04;98170.94;172660;28;1218;-72
2022/06/03 04:32:21;;;;;;;3.40;1.56;;;15.60;99.90;;;19.15;71.91;98160.34;172335;28;1211;-72
2022/06/03 04:33:07;;;;;;;3.42;1.73;;;15.60;99.90;;;19.25;71.45;98163.38;172703;28;1214;-70
2022/06/03 04:34:23;;;;;;;4.91;1.67;;;15.70;99.90;;;19.35;71.43;98152.78;172778;28;1428;-72
2022/06/03 04:35:12;;;;;;;4.74;1.73;;;15.70;99.90;;;19.74;70.08;98156.16;172686;28;1652;-70
2022/06/03 04:35:48;;;;;;;4.68;1.79;;;15.70;99.90;;;19.79;69.74;98156.28;172433;28;1207;-71
2022/06/03 04:36:33;;;;;;;2.91;1.66;;;15.70;99.90;;;19.49;70.64;98157.03;172810;28;1300;-71
2022/06/03 04:37:09;;;;;;;2.84;1.61;;;15.70;99.90;;;19.52;70.74;98162.06;173673;28;1409;-73
2022/06/03 04:38:17;;;;;;;2.03;1.42;;;15.70;99.90;;;19.63;70.74;98160.47;174048;28;1531;-70
2022/06/03 04:39:21;;;;;;;2.26;1.38;;;15.70;99.90;;;19.83;69.96;98171.16;170707;28;1713;-70
2022/06/03 04:40:03;;;;;;;3.14;1.61;;;15.70;99.90;;;19.98;69.27;98174.31;170694;28;1361;-71
2022/06/03 04:41:04;;;;;;;3.49;1.48;;;15.70;99.90;;;19.78;69.93;98174.59;172543;28;2761;-71
2022/06/03 04:41:54;;;;;;;3.14;1.58;;;15.70;99.90;;;19.75;70.38;98179.66;173171;28;1455;-71
2022/06/03 04:42:30;;;;;;;3.29;1.74;;;15.70;99.90;;;19.93;69.47;98174.19;173016;28;1224;-72
2022/06/03 04:43:20;;;;;;;3.10;1.69;;;15.70;99.90;;;19.85;69.79;98177.22;172406;28;1198;-72
2022/06/03 04:43:56;;;;;;;3.08;1.54;;;15.80;99.90;;;19.64;70.61;98183.97;172907;28;1225;-72
2022/06/03 04:45:12;;;;;;;3.16;1.51;;;15.80;99.90;;;19.45;71.69;98185.88;173133;28;1216;-71
2022/06/03 04:45:51;;;;;;;2.76;1.64;;;15.80;99.90;;;19.38;71.81;98179.59;173048;28;1216;-72
2022/06/03 04:46:52;;;;;;;3.35;1.75;;;15.80;99.90;;;19.52;71.41;98170.25;172302;28;1243;-72
2022/06/03 04:48:06;;;;;;;3.20;1.73;;;15.80;99.90;;;19.76;70.46;98176.69;171449;28;1208;-71
2022/06/03 04:49:05;;;;;;;2.53;1.55;;;15.80;99.90;;;20.11;69.73;98182.34;172709;28;1752;-73
2022/06/03 04:49:23;;;;;;;3.01;1.74;;;15.80;99.90;;;20.27;68.78;98176.22;173970;28;1294;-71
2022/06/03 04:50:22;;;;;;;3.46;1.75;;;15.80;99.90;;;20.35;68.42;98178.69;172231;28;1474;-71
2022/06/03 04:50:27;;;;;;;3.13;1.61;;;15.80;99.90;;;20.34;68.38;98178.91;171514;28;2858;-71
2022/06/03 04:50:56;;;;;;;2.58;1.50;;;15.80;99.90;;;20.31;67.90;98180.19;172352;28;1485;-72
2022/06/03 04:51:52;;;;;;;2.67;1.50;;;15.80;99.90;;;20.30;68.70;98178.50;172105;28;2104;-71
2022/06/03 04:53:06;;;;;;;3.03;1.55;;;15.80;99.90;;;20.41;68.31;98176.91;170961;28;1213;-72
2022/06/03 04:54:29;;;;;;;3.11;1.64;;;15.80;99.90;;;20.35;69.50;98181.41;172183;28;1455;-72
2022/06/03 04:55:04;;;;;;;3.29;1.55;;;15.80;99.90;;;20.05;69.09;98183.25;172359;28;1327;-72
2022/06/03 04:55:48;;;;;;;2.72;1.60;;;15.80;99.90;;;20.21;69.38;98181.78;172767;28;1234;-72
2022/06/03 04:56:41;;;;;;;2.83;1.63;;;15.80;99.90;;;20.31;68.85;98184.84;173743;28;1346;-72
2022/06/03 04:57:02;;;;;;;3.08;1.71;;;15.80;99.90;;;20.31;68.38;98182.91;171474;28;1228;-72
2022/06/03 04:57:44;;;;;;;3.66;1.65;;;15.80;99.90;;;20.35;68.40;98175.94;172563;28;1200;-72
2022/06/03 04:59:15;;;;;;;3.56;1.63;;;15.80;99.90;;;20.39;68.55;98183.66;172650;28;1572;-70
2022/06/03 05:00:15;;;;;;;2.38;1.42;;;15.90;99.90;;;19.89;70.16;98182.00;172681;28;1216;-71
2022/06/03 05:00:58;;;;;;;2.38;1.58;;;15.90;99.90;;;19.91;70.72;98187.22;172260;28;1603;-71
2022/06/03 05:02:21;;;;;;;2.54;1.66;;;16.00;99.90;;;20.25;69.29;98183.00;171972;28;1586;-71
2022/06/03 05:03:36;;;;;;;7.09;3.26;;;16.00;99.90;;;20.32;69.24;98179.13;169820;29;1224;-71
2022/06/03 05:04:26;;;;;;;7.79;3.59;;;16.00;99.90;;;20.15;69.94;98180.81;173655;28;1234;-70
2022/06/03 05:05:17;;;;;;;4.25;2.15;;;16.00;99.90;;;20.48;68.81;98180.38;173330;28;2845;-71
2022/06/03 05:06:09;;;;;;;5.36;2.47;;;16.10;99.90;;;20.38;68.46;98180.09;173076;28;1223;-70
2022/06/03 05:07:08;;;;;;;5.29;2.50;;;16.00;99.90;;;20.02;70.12;98178.25;172607;28;1222;-71
2022/06/03 05:08:01;;;;;;;5.19;2.47;;;16.00;99.90;;;19.67;71.75;98171.78;172348;28;1166;-71
2022/06/03 05:08:27;;;;;;;3.34;1.90;;;16.10;99.90;;;19.73;71.74;98171.69;172428;28;1691;-71
2022/06/03 05:09:19;;;;;;;3.53;1.80;;;16.10;99.90;;;19.91;71.38;98176.28;172330;28;1230;-71
2022/06/03 05:10:06;;;;;;;3.75;1.90;;;16.10;99.90;;;20.03;71.36;98176.38;172845;28;1451;-72
2022/06/03 05:10:33;;;;;;;2.84;1.69;;;16.10;99.90;;;20.07;71.19;98169.38;173148;28;1653;-72
2022/06/03 05:10:53;;;;;;;2.59;1.60;;;16.10;99.90;;;19.97;71.44;98172.66;173409;28;1213;-71
2022/06/03 05:11:58;;;;;;;3.22;1.76;;;16.10;99.90;;;19.89;71.64;98176.53;173026;28;3947;-72
2022/06/03 05:13:03;;;;;;;3.22;1.79;;;16.20;99.90;;;19.90;71.95;98180.09;172963;28;1213;-72
2022/06/03 05:14:04;;;;;;;3.31;1.80;;;16.30;99.90;;;20.09;71.14;98175.44;172543;28;1601;-71
2022/06/03 05:15:19;;;;;;;3.33;1.84;;;16.20;99.90;;;20.68;68.79;98174.59;172628;28;1571;-70
2022/06/03 05:18:24;;;;;;;3.69;1.84;;;16.20;99.90;;;21.00;68.66;98178.69;171844;28;1537;-71
2022/06/03 05:18:44;;;;;;;3.40;1.70;;;16.30;99.90;;;20.78;67.78;98175.69;170283;28;1932;-72
2022/06/03 05:18:53;;;;;;;2.69;1.58;;;16.30;99.90;;;20.61;68.42;98182.09;170155;28;1623;-71
2022/06/03 05:18:59;;;;;;;2.83;1.87;;;16.30;99.90;;;20.57;68.80;98184.44;170741;28;1483;-72
2022/06/03 05:19:45;;;;;;;3.00;1.90;;;16.20;99.90;;;20.52;69.67;98184.28;171212;28;1574;-72
2022/06/03 05:20:05;;;;;;;3.00;1.86;;;16.20;99.90;;;20.22;70.36;98184.28;170166;28;1217;-70
2022/06/03 05:21:01;;;;;;;3.71;1.81;;;16.30;99.90;;;20.12;71.11;98185.91;171293;28;1881;-71
2022/06/03 05:21:41;;;;;;;3.60;1.80;;;16.30;99.90;;;20.00;71.25;98185.84;171447;28;1359;-72
2022/06/03 05:22:17;;;;;;;3.72;1.92;;;16.30;99.90;;;20.06;70.99;98193.13;170906;28;1227;-72
2022/06/03 05:22:49;;;;;;;4.56;2.04;;;16.30;99.90;;;20.13;70.86;98198.50;170653;28;1222;-72
2022/06/03 05:23:55;;;;;;;3.14;1.66;;;16.30;99.90;;;20.17;71.02;98195.09;171658;28;1228;-71
2022/06/03 05:24:53;;;;;;;3.55;1.66;;;16.40;99.90;;;20.56;70.01;98195.63;169594;29;1242;-72
2022/06/03 05:25:58;;;;;;;3.47;1.84;;;16.40;99.90;;;20.98;67.99;98194.53;171536;28;1420;-71
2022/06/03 05:26:04;;;;;;;3.06;1.81;;;16.40;99.90;;;21.03;67.78;98193.81;171517;28;1227;-72
2022/06/03 05:27:08;;;;;;;2.63;1.83;;;16.40;99.90;;;20.90;68.43;98197.59;171886;28;1170;-71
2022/06/03 05:27:37;;;;;;;2.78;1.76;;;16.40;99.90;;;20.82;68.79;98197.97;171527;28;1221;-72
2022/06/03 05:28:38;;;;;;;2.90;1.79;;;16.40;99.90;;;20.88;68.74;98196.19;171176;28;1275;-70
2022/06/03 05:29:05;;;;;;;3.79;1.88;;;16.50;99.90;;;21.06;68.14;98199.66;171072;28;1301;-72
2022/06/03 05:29:48;;;;;;;4.95;1.94;;;16.50;99.90;;;21.18;67.92;98202.44;171034;28;2875;-71
2022/06/03 05:30:30;;;;;;;4.16;1.99;;;16.50;99.90;;;20.88;68.17;98197.00;171133;28;1866;-71
2022/06/03 05:31:25;;;;;;;3.76;1.90;;;16.60;99.90;;;20.85;68.55;98200.22;172306;28;2350;-69
2022/06/03 05:32:16;;;;;;;5.11;2.00;;;16.60;99.90;;;20.90;68.71;98188.56;172068;28;1262;-72
2022/06/03 05:33:23;;;;;;;5.39;1.95;;;16.60;99.90;;;21.22;67.35;98191.84;171597;28;1921;-71
2022/06/03 05:33:40;;;;;;;3.67;1.94;;;16.70;99.90;;;21.21;66.86;98188.25;168309;29;1612;-71
2022/06/03 05:34:29;;;;;;;3.65;1.85;;;16.70;99.90;;;21.41;66.83;98191.47;168459;29;1482;-72
2022/06/03 05:35:12;;;;;;;3.54;1.84;;;16.70;99.90;;;21.42;65.75;98192.31;168599;29;1308;-71
2022/06/03 05:35:45;;;;;;;3.65;1.85;;;16.60;99.90;;;21.34;66.29;98195.41;168443;29;1246;-72
2022/06/03 05:39:58;;;;;;;2.72;1.83;;;16.70;99.90;;;20.62;68.80;98183.75;171929;28;1173;-70
2022/06/03 05:40:44;;;;;;;2.99;1.85;;;16.80;99.90;;;20.93;67.83;98177.16;167582;29;1222;-71
2022/06/03 05:42:24;;;;;;;3.33;1.83;;;16.80;99.90;;;21.00;67.59;98181.44;172052;28;1181;-71
2022/06/03 05:43:22;;;;;;;3.03;1.67;;;16.80;99.90;;;21.18;67.06;98175.06;172360;28;1227;-70
2022/06/03 05:49:06;;;;;;;3.39;1.80;;;17.00;99.90;;;22.04;64.36;98182.44;171357;28;9560;-70
2022/06/03 05:50:08;;;;;;;4.30;1.84;;;17.00;99.90;;;21.64;65.61;98179.66;146075;33;8420;-71
2022/06/03 05:50:50;;;;;;;4.44;1.94;;;17.00;99.90;;;21.50;65.88;98186.47;170008;29;1280;-71
2022/06/03 05:51:56;;;;;;;5.13;2.00;;;17.00;99.90;;;21.73;65.48;98182.84;169557;29;1331;-71
2022/06/03 05:52:33;;;;;;;4.51;2.13;;;17.10;99.90;;;21.85;64.98;98181.75;166896;29;1378;-71
2022/06/03 05:53:38;;;;;;;2.84;1.86;;;17.10;99.90;;;21.69;65.90;98185.25;167272;29;1244;-72
2022/06/03 05:54:17;;;;;;;3.44;2.04;;;17.10;99.90;;;22.03;64.90;98181.59;168945;29;1217;-71
2022/06/03 05:55:10;;;;;;;3.65;1.91;;;17.20;99.90;;;21.86;64.79;98193.56;168439;29;1456;-72
2022/06/03 05:55:59;;;;;;;4.79;2.03;;;17.20;99.90;;;21.36;66.14;98190.50;166366;29;1284;-72
2022/06/03 05:56:40;;;;;;;4.34;2.25;;;17.20;99.90;;;21.46;65.85;98190.75;168522;28;1515;-72
2022/06/03 05:57:06;;;;;;;3.91;2.13;;;17.30;99.90;;;21.50;65.84;98187.28;170839;28;1512;-71
2022/06/03 05:58:00;;;;;;;3.94;2.22;;;17.30;99.90;;;21.52;65.70;98182.41;170006;29;1328;-71
2022/06/03 05:58:14;;;;;;;3.29;1.96;;;17.30;99.90;;;21.43;66.13;98183.00;169985;28;1352;-71
2022/06/03 05:58:45;;;;;;;3.11;1.81;;;17.30;99.90;;;21.65;65.94;98183.25;170733;28;1337;-71
2022/06/03 05:59:17;;;;;;;3.64;2.00;;;17.30;99.90;;;21.50;66.03;98186.47;170313;29;1227;-71
2022/06/03 05:59:29;;;;;;;4.63;2.03;;;17.30;99.90;;;21.52;66.27;98187.06;169831;29;1644;-71
2022/06/03 05:59:53;;;;;;;5.57;2.16;;;17.30;99.90;;;21.62;65.96;98182.63;168927;29;1359;-72
2022/06/03 06:00:27;;;;;;;4.28;2.19;;;17.30;99.90;;;21.59;65.70;98185.03;168569;29;1247;-71
2022/06/03 06:01:16;;;;;;;3.58;2.10;;;17.30;99.90;;;21.93;65.25;98186.84;170181;29;1237;-71
2022/06/03 06:01:55;;;;;;;3.04;1.85;;;17.40;99.90;;;22.25;63.57;98191.91;171003;28;1316;-72
2022/06/03 06:02:26;;;;;;;2.97;1.73;;;17.30;99.90;;;22.23;64.26;98188.56;170694;28;1214;-71
2022/06/03 06:02:52;;;;;;;3.53;1.74;;;17.40;99.90;;;22.27;63.95;98184.28;171125;28;1412;-72
2022/06/03 06:03:33;;;;;;;4.26;1.83;;;17.40;99.90;;;22.30;63.94;98183.78;171020;28;1313;-72
2022/06/03 06:04:06;;;;;;;3.64;1.65;;;17.40;99.90;;;22.51;63.61;98193.22;170991;28;1439;-72
2022/06/03 06:04:51;;;;;;;3.99;1.98;;;17.40;99.90;;;22.56;63.30;98183.19;171074;28;1220;-71
2022/06/03 06:05:42;;;;;;;5.46;2.49;;;17.40;99.90;;;21.94;64.99;98172.09;171374;28;1523;-71
2022/06/03 06:06:47;;;;;;;4.44;2.25;;;17.50;99.90;;;22.04;65.00;98168.72;171197;28;1210;-71
2022/06/03 06:07:45;;;;;;;5.82;2.20;;;17.50;99.90;;;22.32;64.13;98187.97;170072;28;1937;-71
2022/06/03 06:08:18;;;;;;;5.46;2.29;;;17.50;99.90;;;22.36;63.85;98177.31;170824;28;1464;-72
2022/06/03 06:09:32;;;;;;;4.11;2.11;;;17.50;99.90;;;22.37;63.73;98181.72;171812;28;1282;-71
2022/06/03 06:10:14;;;;;;;3.61;2.08;;;17.50;99.90;;;22.55;63.23;98186.16;171013;28;1671;-72
2022/06/03 06:11:06;;;;;;;3.65;2.15;;;17.50;99.90;;;22.59;63.13;98181.88;171054;28;1633;-72
2022/06/03 06:11:44;;;;;;;3.80;1.98;;;17.50;99.90;;;22.28;63.64;98189.50;169882;29;1251;-71
2022/06/03 06:12:24;;;;;;;3.41;2.03;;;17.50;99.90;;;22.14;63.97;98188.13;171706;28;1882;-72
2022/06/03 06:13:21;;;;;;;3.22;1.91;;;17.60;99.90;;;22.10;63.99;98186.13;171886;28;1645;-70
2022/06/03 06:14:09;;;;;;;3.99;2.03;;;17.60;99.90;;;22.12;64.11;98187.56;172460;28;1432;-72
2022/06/03 06:14:42;;;;;;;4.55;2.08;;;17.70;99.90;;;22.25;64.29;98186.44;171326;28;1516;-72
2022/06/03 06:15:41;;;;;;;4.10;2.05;;;17.80;99.90;;;22.49;63.76;98182.50;171552;28;1462;-72
2022/06/03 06:16:30;;;;;;;3.49;1.89;;;17.80;99.90;;;22.67;63.16;98182.28;170602;28;1954;-72
2022/06/03 06:16:44;;;;;;;3.54;1.90;;;17.80;99.90;;;22.62;63.31;98184.09;170422;29;1239;-71
2022/06/03 06:16:53;;;;;;;4.50;1.98;;;17.80;99.90;;;22.73;63.15;98194.22;171016;28;1698;-71
2022/06/03 06:17:41;;;;;;;3.93;2.00;;;17.80;99.90;;;22.78;62.62;98173.19;171175;28;927;-72
2022/06/03 06:17:58;;;;;;;3.34;1.85;;;17.80;99.90;;;22.67;62.59;98184.19;170638;28;1266;-72
2022/06/03 06:18:23;;;;;;;3.30;1.74;;;17.80;99.90;;;22.47;63.38;98179.19;171098;28;1226;-71
2022/06/03 06:18:52;;;;;;;4.21;1.79;;;17.80;99.90;;;22.38;63.62;98180.66;169042;29;1322;-72
2022/06/03 06:19:43;;;;;;;4.47;1.83;;;17.80;99.90;;;22.09;64.39;98176.22;170176;29;1631;-72
2022/06/03 06:19:57;;;;;;;3.47;1.89;;;17.80;99.90;;;21.99;65.14;98172.22;171846;28;1435;-72
2022/06/03 06:20:58;;;;;;;4.13;2.28;;;17.80;99.90;;;21.95;65.18;98170.19;171726;28;1257;-71
2022/06/03 06:21:46;;;;;;;4.07;2.06;;;17.80;99.90;;;22.66;63.72;98177.88;169851;28;1502;-71
2022/06/03 06:22:31;;;;;;;4.00;1.91;;;17.90;99.90;;;22.49;63.05;98174.25;168939;29;1268;-72
2022/06/03 06:22:47;;;;;;;3.10;1.99;;;17.90;99.90;;;22.60;62.70;98170.63;171268;28;1233;-71
2022/06/03 06:23:17;;;;;;;3.26;1.98;;;17.90;99.90;;;22.65;62.92;98169.88;170673;28;1829;-71
2022/06/03 06:24:12;;;;;;;3.30;1.92;;;17.90;99.90;;;22.97;62.34;98168.28;171157;28;1235;-71
2022/06/03 06:24:34;;;;;;;2.80;1.79;;;18.00;99.90;;;23.17;61.67;98179.56;170472;29;1256;-72
2022/06/03 06:25:05;;;;;;;2.79;1.58;;;18.00;99.90;;;23.03;61.77;98177.44;171415;28;1215;-70
2022/06/03 06:25:46;;;;;;;3.14;1.69;;;18.00;99.90;;;23.08;61.32;98181.09;170289;29;1541;-71
2022/06/03 06:26:12;;;;;;;4.09;1.80;;;18.00;99.90;;;23.15;61.42;98178.19;169544;29;1505;-72
2022/06/03 06:26:48;;;;;;;3.16;1.74;;;18.00;99.90;;;23.15;61.88;98180.94;169857;29;1239;-71
2022/06/03 06:27:57;;;;;;;4.43;1.75;;;18.00;99.90;;;23.09;62.47;98182.75;169879;29;1612;-71
2022/06/03 06:28:55;;;;;;;2.97;1.71;;;18.10;99.90;;;23.26;62.16;98185.50;169094;29;1593;-71
2022/06/03 06:29:24;;;;;;;3.49;1.79;;;18.10;99.90;;;23.21;61.33;98185.44;171632;28;1525;-72
2022/06/03 06:30:34;;;;;;;3.06;1.79;;;18.20;99.90;;;23.25;61.82;98187.41;172228;28;1245;-72
2022/06/03 06:31:06;;;;;;;3.50;1.92;;;18.20;99.90;;;23.26;61.60;98193.75;168136;29;1222;-71
2022/06/03 06:32:08;;;;;;;3.94;1.88;;;18.20;99.90;;;23.16;62.22;98188.91;167744;29;1536;-72
2022/06/03 06:33:06;;;;;;;3.53;1.81;;;18.20;99.90;;;22.95;62.81;98186.09;169307;29;1384;-71
2022/06/03 06:33:48;;;;;;;3.64;1.71;;;18.20;99.90;;;22.63;62.24;98183.03;172040;28;1234;-72
2022/06/03 06:34:20;;;;;;;3.61;1.67;;;18.20;99.90;;;22.73;63.09;98196.97;171693;28;1274;-71
2022/06/03 06:35:22;;;;;;;3.75;1.80;;;18.30;99.90;;;22.77;63.62;98184.41;172174;28;1251;-72
2022/06/03 06:35:55;;;;;;;4.88;1.80;;;18.30;99.90;;;22.76;63.68;98190.97;170778;28;1279;-71
2022/06/03 06:36:52;;;;;;;4.28;1.88;;;18.40;99.90;;;22.48;63.94;98193.72;170961;28;2879;-71
2022/06/03 06:37:34;;;;;;;3.83;1.84;;;18.40;99.90;;;22.22;64.84;98192.41;168754;29;1986;-71
2022/06/03 06:38:25;;;;;;;3.70;2.09;;;18.30;99.90;;;22.18;64.51;98186.56;171648;28;1448;-72
2022/06/03 06:38:49;;;;;;;3.69;2.06;;;18.30;99.90;;;22.39;64.41;98185.88;171823;28;1243;-72
2022/06/03 06:39:42;;;;;;;3.45;2.03;;;18.30;99.90;;;22.46;64.20;98193.97;172307;28;2015;-71
2022/06/03 06:40:19;;;;;;;3.28;1.91;;;18.30;99.90;;;22.88;63.09;98192.56;171054;28;1458;-72
2022/06/03 06:40:59;;;;;;;2.90;1.89;;;18.40;99.90;;;22.87;62.40;98195.56;169708;29;1237;-72
2022/06/03 06:41:38;;;;;;;3.65;2.08;;;18.40;99.90;;;22.93;62.73;98189.06;171242;28;1740;-72
2022/06/03 06:42:25;;;;;;;3.61;2.13;;;18.40;99.90;;;22.89;62.53;98201.66;171458;28;1235;-71
2022/06/03 06:43:10;;;;;;;3.83;2.25;;;18.50;99.90;;;23.38;61.67;98202.69;169688;29;1256;-70
2022/06/03 06:43:49;;;;;;;4.59;2.05;;;18.50;99.90;;;23.42;61.37;98201.09;170474;28;1243;-72
2022/06/03 06:44:17;;;;;;;5.26;2.05;;;18.50;99.90;;;23.35;61.84;98197.72;170573;28;1216;-71
2022/06/03 06:45:36;;;;;;;3.70;1.91;;;18.60;99.90;;;23.31;62.03;98191.06;169252;29;1506;-71
2022/06/03 06:46:17;;;;;;;4.76;2.11;;;18.60;99.90;;;23.03;63.55;98202.97;172514;28;1464;-71
2022/06/03 06:47:09;;;;;;;4.35;2.20;;;18.60;99.90;;;22.67;64.03;98197.91;171443;28;1445;-72
2022/06/03 06:47:42;;;;;;;3.75;2.03;;;18.70;99.90;;;22.91;63.37;98193.13;171979;28;1250;-72
2022/06/03 06:48:09;;;;;;;3.49;1.85;;;18.70;99.90;;;22.95;62.77;98191.59;171147;28;1342;-72
2022/06/03 06:49:12;;;;;;;5.85;2.01;;;18.70;99.90;;;23.09;63.39;98192.91;170879;28;1511;-72
2022/06/03 06:49:24;;;;;;;4.40;1.80;;;18.70;99.90;;;23.51;63.00;98201.56;167172;29;1273;-72
2022/06/03 06:50:19;;;;;;;4.22;1.70;;;18.70;99.90;;;23.63;62.22;98194.84;167721;29;1684;-72
2022/06/03 06:50:53;;;;;;;3.74;1.80;;;18.70;99.90;;;23.41;62.75;98196.72;165974;29;1244;-71
2022/06/03 06:51:41;;;;;;;3.86;2.11;;;18.80;99.90;;;23.43;64.01;98200.03;166853;29;1234;-71
2022/06/03 06:52:25;;;;;;;4.21;2.13;;;18.80;99.90;;;22.84;64.12;98196.06;166245;29;1231;-72
2022/06/03 06:53:02;;;;;;;5.78;2.44;;;18.80;99.90;;;22.97;64.09;98192.97;167677;29;1222;-72
2022/06/03 06:53:55;;;;;;;6.22;2.91;;;18.80;99.90;;;23.15;64.18;98195.50;168404;29;1786;-71
2022/06/03 06:54:25;;;;;;;7.16;2.84;;;18.80;99.90;;;23.51;63.18;98191.41;167563;29;1345;-72
2022/06/03 06:55:15;;;;;;;6.07;2.75;;;18.90;99.90;;;23.66;62.73;98196.28;167225;29;1237;-70
2022/06/03 06:55:35;;;;;;;3.63;2.14;;;18.90;99.90;;;23.73;61.75;98193.34;168763;29;1467;-72
2022/06/03 06:56:25;;;;;;;3.31;1.76;;;18.90;99.90;;;23.70;62.35;98195.53;167559;29;1458;-71
2022/06/03 06:56:49;;;;;;;3.28;1.85;;;18.90;99.90;;;23.45;63.48;98186.91;166999;29;1435;-72
2022/06/03 06:57:07;;;;;;;4.50;2.08;;;18.90;99.90;;;23.33;64.36;98185.31;169981;29;1234;-72
2022/06/03 06:57:32;;;;;;;4.24;2.49;;;19.00;99.90;;;23.21;64.19;98186.22;168915;29;1395;-71
2022/06/03 06:57:52;;;;;;;4.60;2.65;;;19.00;99.90;;;23.18;64.40;98184.00;169613;29;1381;-72
2022/06/03 06:58:20;;;;;;;5.34;2.19;;;19.00;99.90;;;23.14;64.86;98188.34;170510;29;1227;-72
2022/06/03 06:58:56;;;;;;;5.04;2.14;;;19.00;99.90;;;23.08;65.57;98183.84;170433;29;1245;-72
2022/06/03 06:59:11;;;;;;;5.11;2.05;;;19.00;99.90;;;23.12;65.39;98186.91;170408;28;1631;-72
2022/06/03 06:59:40;;;;;;;3.54;2.01;;;19.00;99.90;;;23.17;65.66;98184.25;168659;29;2962;-72
2022/06/03 07:00:04;;;;;;;4.28;2.28;;;19.10;99.90;;;23.33;64.92;98188.88;168651;29;1238;-71
2022/06/03 07:00:40;;;;;;;6.11;2.50;;;19.10;99.90;;;23.38;63.94;98194.47;168765;29;1737;-71
2022/06/03 07:00:50;;;;;;;7.04;2.36;;;19.10;99.90;;;23.22;64.13;98187.91;169357;29;1239;-71
2022/06/03 07:01:01;;;;;;;3.51;2.01;;;19.10;99.90;;;23.15;64.36;98180.94;170749;28;1572;-72
2022/06/03 07:01:08;;;;;;;3.38;1.81;;;19.10;99.90;;;23.16;64.39;98188.09;169216;29;1273;-72
2022/06/03 07:01:58;;;;;;;3.40;1.82;;;19.10;99.90;;;23.24;64.78;98184.91;169211;29;1303;-71
2022/06/03 07:02:20;;;;;;;3.86;2.08;;;19.10;99.90;;;23.24;65.13;98188.50;168960;29;1448;-72
2022/06/03 07:02:45;;;;;;;4.13;2.13;;;19.10;99.90;;;23.15;65.54;98176.28;169861;29;1247;-71
2022/06/03 07:03:18;;;;;;;5.43;2.04;;;19.10;99.90;;;23.34;64.61;98174.06;169771;29;1467;-72
2022/06/03 07:04:11;;;;;;;4.97;1.94;;;19.20;99.90;;;23.51;64.32;98180.41;168079;29;2798;-72
2022/06/03 07:04:29;;;;;;;5.85;2.05;;;19.20;99.90;;;23.56;64.47;98176.91;168393;29;1245;-71
2022/06/03 07:04:45;;;;;;;5.06;2.05;;;19.20;99.90;;;23.42;64.09;98181.06;168516;29;1253;-72
2022/06/03 07:05:28;;;;;;;4.74;2.06;;;19.20;99.90;;;23.30;64.82;98173.75;169004;29;2112;-71
2022/06/03 07:06:12;;;;;;;4.85;2.01;;;19.20;99.90;;;23.21;65.16;98174.44;167612;29;1645;-71
2022/06/03 07:06:51;;;;;;;3.31;2.00;;;19.20;99.90;;;23.23;65.19;98172.25;169689;29;1447;-70
2022/06/03 07:07:59;;;;;;;4.04;2.05;;;19.20;99.90;;;23.07;64.91;98184.06;168993;29;1323;-72
2022/06/03 07:08:26;;;;;;;4.59;2.14;;;19.20;99.90;;;22.90;65.52;98183.25;167421;29;1622;-72
2022/06/03 07:08:52;;;;;;;4.96;2.25;;;19.20;99.90;;;23.05;65.26;98175.28;165940;29;1294;-70
2022/06/03 07:09:52;;;;;;;5.16;2.39;;;19.20;99.90;;;23.18;65.46;98185.91;167390;29;1449;-71
2022/06/03 07:10:17;;;;;;;4.26;2.45;;;19.20;99.90;;;23.06;65.08;98182.41;169153;29;1767;-71
2022/06/03 07:11:11;;;;;;;4.44;2.41;;;19.20;99.90;;;23.10;65.06;98181.69;169456;29;1222;-71
2022/06/03 07:11:38;;;;;;;4.55;2.44;;;19.20;99.90;;;23.20;65.08;98178.25;169353;29;1905;-72
2022/06/03 07:12:16;;;;;;;4.74;2.45;;;19.30;99.90;;;23.15;64.21;98180.94;167814;29;1236;-71
2022/06/03 07:12:51;;;;;;;5.32;2.59;;;19.30;99.90;;;23.22;63.93;98178.81;169735;29;1420;-71
2022/06/03 07:13:48;;;;;;;3.91;2.28;;;19.30;99.90;;;23.26;64.25;98183.56;170914;28;1496;-71
2022/06/03 07:14:10;;;;;;;3.63;1.83;;;19.20;99.90;;;23.81;62.54;98182.75;169724;28;1546;-71
2022/06/03 07:14:27;;;;;;;4.44;1.81;;;19.30;99.90;;;23.94;62.47;98179.59;170684;28;1378;-72
2022/06/03 07:15:12;;;;;;;4.51;2.03;;;19.30;99.90;;;24.17;61.76;98183.19;170307;29;1379;-72
2022/06/03 07:15:27;;;;;;;3.51;2.09;;;19.30;99.90;;;24.15;61.39;98183.44;169571;29;1339;-71
2022/06/03 07:16:15;;;;;;;4.04;2.16;;;19.30;99.90;;;23.96;61.91;98176.59;168761;29;1740;-71
2022/06/03 07:20:20;;;;;;;3.44;2.03;;;19.50;99.90;;;23.47;64.03;98183.91;168421;29;1391;-71
2022/06/03 07:21:04;;;;;;;4.03;2.11;;;19.60;99.90;;;23.56;64.21;98176.91;168024;29;1260;-71
2022/06/03 07:22:01;;;;;;;4.21;1.95;;;19.60;99.90;;;23.47;63.40;98172.94;169978;29;1551;-72
2022/06/03 07:22:56;;;;;;;4.06;1.89;;;19.60;99.90;;;23.64;62.61;98166.28;167143;29;1258;-71
2022/06/03 07:23:46;;;;;;;3.26;1.98;;;19.60;99.90;;;23.45;63.35;98175.91;167840;29;1231;-71
2022/06/03 07:24:20;;;;;;;3.60;2.10;;;19.60;99.90;;;23.45;63.72;98166.81;167760;29;1309;-71
2022/06/03 07:25:24;;;;;;;3.84;2.14;;;19.60;99.90;;;23.73;62.83;98171.38;168883;29;1243;-71
2022/06/03 07:26:29;;;;;;;3.55;2.05;;;19.60;99.90;;;23.81;62.43;98168.16;168973;29;1344;-71
2022/06/03 07:26:46;;;;;;;3.58;1.89;;;19.60;99.90;;;23.79;62.12;98162.06;167252;29;1263;-71
2022/06/03 07:26:56;;;;;;;3.58;1.84;;;19.60;99.90;;;23.85;62.54;98169.31;167842;29;1420;-71
2022/06/03 07:27:24;;;;;;;2.97;1.79;;;19.60;99.90;;;23.90;62.63;98170.19;166580;29;1340;-72
2022/06/03 07:27:56;;;;;;;3.54;2.09;;;19.60;99.90;;;23.76;63.19;98159.84;167166;29;1268;-71
2022/06/03 07:28:38;;;;;;;4.55;2.26;;;19.60;99.90;;;23.88;62.02;98163.31;167686;29;1408;-71
2022/06/03 07:29:09;;;;;;;4.13;1.84;;;19.70;99.90;;;23.57;61.64;98168.41;169075;29;1250;-71
2022/06/03 07:29:42;;;;;;;4.46;1.80;;;19.70;99.90;;;23.79;61.29;98162.06;170301;28;1482;-71
2022/06/03 07:29:58;;;;;;;3.91;1.89;;;19.70;99.90;;;23.91;60.85;98163.63;170797;28;1478;-71
2022/06/03 07:30:51;;;;;;;3.12;1.95;;;19.70;99.90;;;24.14;60.63;98168.03;170313;29;1568;-71
2022/06/03 07:31:31;;;;;;;3.69;1.91;;;19.70;99.90;;;24.49;59.99;98160.19;169235;29;1835;-72
2022/06/03 07:32:01;;;;;;;3.30;1.74;;;19.70;99.90;;;24.60;58.95;98160.28;169695;29;1552;-71
2022/06/03 07:32:21;;;;;;;2.25;1.55;;;19.70;99.90;;;24.56;58.26;98163.53;170304;29;1634;-71
2022/06/03 07:32:47;;;;;;;2.34;1.69;;;19.80;99.90;;;24.52;58.49;98159.66;169980;29;1673;-72